logo
Rechercher aéroport 
image banner adimage banner adimage banner ad
image banner ad

5CL8 - Creekside

Situé à Arvin, United States

ICAO - 5CL8, IATA -

Données fournies par Airmate  

Information générale

Coordonnées: N35°10'34" W118°55'23"
Élévation : 335 feet MSL.
Variation magnétique : 14° East
Voir autres Aéroports à California

Données opérationnelles

Special qualification required
Heure actuelle UTC:
Heure actuelle locale:
Météo à : KBFL - Meadows Field ( 31 km )
METAR: KBFL 281254Z 31003KT 8SM CLR 21/12 A2997 RMK AO2 SLP141 T02060122
TAF: KBFL 281120Z 2812/2912 32004KT P6SM SKC
Voir NOTAMs / SUP AIP / TFR affectant cet aéroport [VIEW]
Fréquences de communication: [VIEW]

Pistes:

Identifiant RWYQFULongueur (ft)Largeur (ft)SurfaceLDA (ft)
162000100OTHER
342000100OTHER

Coordonnées de l'aéroport

Adresse: Arvin United States

Vue satellite de 5CL8